createdAt,value
2023-02-11T00:01:20.283Z,23.80
2023-02-11T00:06:23.136Z,23.20
2023-02-11T00:11:30.261Z,22.80
2023-02-11T00:16:33.118Z,21.80
2023-02-11T00:21:35.981Z,23.60
2023-02-11T00:26:40.173Z,21.40
2023-02-11T00:31:43.209Z,20.80
2023-02-11T00:36:46.222Z,22.60
2023-02-11T00:41:52.151Z,20.60
2023-02-11T00:46:54.926Z,20.60
2023-02-11T00:51:57.710Z,20.20
2023-02-11T00:57:01.810Z,19.80
2023-02-11T01:02:04.690Z,19.00
2023-02-11T01:07:07.458Z,18.60
2023-02-11T01:12:11.649Z,19.00
2023-02-11T01:17:16.878Z,19.20
2023-02-11T01:22:19.687Z,19.60
2023-02-11T01:27:24.762Z,19.00
2023-02-11T01:32:27.638Z,18.00
2023-02-11T01:37:30.424Z,18.80
2023-02-11T01:42:34.864Z,18.40
2023-02-11T01:47:37.699Z,19.00
2023-02-11T01:52:40.568Z,18.00
2023-02-11T01:57:46.673Z,18.40
2023-02-11T02:02:52.306Z,18.60
2023-02-11T02:07:59.987Z,18.40
2023-02-11T02:13:05.142Z,17.00
2023-02-11T02:18:14.164Z,16.60
2023-02-11T02:23:34.242Z,17.80
2023-02-11T02:28:47.860Z,19.00
2023-02-11T02:33:54.410Z,15.80
2023-02-11T02:38:58.942Z,17.60
2023-02-11T02:44:01.790Z,17.20
2023-02-11T02:49:07.774Z,17.60
2023-02-11T02:54:37.888Z,16.60
2023-02-11T02:59:45.377Z,15.80
2023-02-11T03:04:51.284Z,15.00
2023-02-11T03:09:56.418Z,17.40
2023-02-11T03:14:59.399Z,16.80
2023-02-11T03:20:04.216Z,15.40
2023-02-11T03:25:07.754Z,14.40
2023-02-11T03:30:12.468Z,15.80
2023-02-11T03:35:17.886Z,17.20
2023-02-11T03:40:21.499Z,14.40
2023-02-11T03:45:24.859Z,16.60
2023-02-11T03:50:29.074Z,16.60
2023-02-11T03:55:32.037Z,15.00
2023-02-11T04:00:36.622Z,14.20
2023-02-11T04:05:40.819Z,13.80
2023-02-11T04:10:43.550Z,13.20
2023-02-11T04:15:48.807Z,13.20
2023-02-11T04:20:53.273Z,15.40
2023-02-11T04:25:56.058Z,12.40
2023-02-11T04:30:58.921Z,13.40
2023-02-11T04:36:03.104Z,15.40
2023-02-11T04:41:06.204Z,12.60
2023-02-11T04:46:09.092Z,13.60
2023-02-11T04:51:13.453Z,14.00
2023-02-11T04:56:16.241Z,11.00
2023-02-11T05:01:19.104Z,12.80
2023-02-11T05:06:23.407Z,12.80
2023-02-11T05:11:26.408Z,14.00
2023-02-11T05:16:29.241Z,11.40
2023-02-11T05:21:33.470Z,10.20
2023-02-11T05:26:36.294Z,13.00
2023-02-11T05:31:39.116Z,11.00
2023-02-11T05:36:43.283Z,11.20
2023-02-11T05:41:46.307Z,11.80
2023-02-11T05:46:49.523Z,12.80
2023-02-11T05:51:53.689Z,11.60
2023-02-11T05:56:56.500Z,14.00
2023-02-11T06:01:59.259Z,12.80
2023-02-11T06:07:03.515Z,11.40
2023-02-11T06:12:06.543Z,10.80
2023-02-11T06:17:09.550Z,11.00
2023-02-11T06:22:13.825Z,13.20
2023-02-11T06:27:17.410Z,10.40
2023-02-11T06:32:42.372Z,11.20
2023-02-11T06:37:45.105Z,11.00
2023-02-11T06:42:48.040Z,13.00
2023-02-11T06:47:52.323Z,10.20
2023-02-11T06:52:56.505Z,11.00
2023-02-11T06:57:59.327Z,11.60
2023-02-11T07:03:02.565Z,12.20
2023-02-11T07:08:06.947Z,13.00
2023-02-11T07:13:09.766Z,11.00
2023-02-11T07:18:14.622Z,13.60
2023-02-11T07:23:18.891Z,12.80
2023-02-11T07:28:21.814Z,13.80
2023-02-11T07:33:24.860Z,13.80
2023-02-11T07:38:29.097Z,13.20
2023-02-11T07:43:31.993Z,12.80
2023-02-11T07:48:34.883Z,12.40
2023-02-11T07:53:39.148Z,13.60
2023-02-11T07:58:42.357Z,12.80
2023-02-11T08:03:45.268Z,15.80
2023-02-11T08:08:49.583Z,18.00
2023-02-11T08:13:53.233Z,23.00
2023-02-11T08:18:57.405Z,22.00
2023-02-11T08:24:02.333Z,26.00
2023-02-11T08:29:07.789Z,28.50
2023-02-11T08:34:11.491Z,32.00
2023-02-11T08:39:19.771Z,29.00
2023-02-11T08:44:23.478Z,37.25
2023-02-11T08:49:26.230Z,32.50
2023-02-11T08:54:30.423Z,31.00
2023-02-11T08:59:33.456Z,29.20
2023-02-11T09:04:36.242Z,22.80
2023-02-11T09:09:40.620Z,22.80
2023-02-11T09:14:43.490Z,21.20
2023-02-11T09:19:46.290Z,21.00
2023-02-11T09:24:50.454Z,20.80
2023-02-11T09:29:53.278Z,18.80
2023-02-11T09:34:56.026Z,21.00
2023-02-11T09:40:00.234Z,17.80
2023-02-11T09:45:03.779Z,17.20
2023-02-11T09:50:07.835Z,16.20
2023-02-11T09:55:18.528Z,16.00
2023-02-11T10:00:23.747Z,16.20
2023-02-11T10:05:33.502Z,16.60
2023-02-11T10:10:42.856Z,16.00
2023-02-11T10:15:46.718Z,17.00
2023-02-11T10:21:01.868Z,14.40
2023-02-11T10:26:11.720Z,13.00
2023-02-11T10:31:16.490Z,12.80
2023-02-11T10:36:20.029Z,14.40
2023-02-11T10:41:27.448Z,14.20
2023-02-11T10:46:32.286Z,13.20
2023-02-11T10:51:35.353Z,11.20
2023-02-11T10:56:41.470Z,13.80
2023-02-11T11:01:47.117Z,12.80
2023-02-11T11:06:49.949Z,14.00
2023-02-11T11:11:54.605Z,11.40
2023-02-11T11:16:57.749Z,12.20
2023-02-11T11:22:00.510Z,13.00
2023-02-11T11:27:05.204Z,14.60
2023-02-11T11:32:12.288Z,12.00
2023-02-11T11:37:19.371Z,13.60
2023-02-11T11:42:30.350Z,12.20
2023-02-11T11:47:35.187Z,14.20
2023-02-11T11:52:42.826Z,12.00
2023-02-11T11:57:47.225Z,13.40
2023-02-11T12:03:23.153Z,15.20
2023-02-11T12:08:30.133Z,13.40
2023-02-11T12:13:47.447Z,13.20
2023-02-11T12:19:03.980Z,14.60
2023-02-11T12:24:12.227Z,15.20
2023-02-11T12:29:20.657Z,15.00
2023-02-11T12:34:30.872Z,13.20
2023-02-11T12:39:38.271Z,14.60
2023-02-11T12:44:49.435Z,12.20
2023-02-11T12:50:01.970Z,12.00
2023-02-11T12:55:09.144Z,14.60
2023-02-11T13:00:18.428Z,12.00
2023-02-11T13:05:24.774Z,12.40
2023-02-11T13:10:30.602Z,13.20
2023-02-11T13:15:34.882Z,11.60
2023-02-11T13:20:41.454Z,13.00
2023-02-11T13:25:46.561Z,13.00
2023-02-11T13:31:01.904Z,12.60
2023-02-11T13:36:18.908Z,13.00
2023-02-11T13:41:24.767Z,11.20
2023-02-11T13:46:29.896Z,13.00
2023-02-11T13:51:37.046Z,14.60
2023-02-11T13:56:40.666Z,13.00
2023-02-11T14:02:20.678Z,13.40
2023-02-11T14:07:45.175Z,11.40
2023-02-11T14:13:06.212Z,30.00
2023-02-11T14:18:54.126Z,125.00
2023-02-11T14:24:40.039Z,248.67
2023-02-11T14:29:44.522Z,242.00
2023-02-11T14:34:54.433Z,129.50
2023-02-11T14:40:03.537Z,137.75
2023-02-11T14:45:08.418Z,136.25
2023-02-11T14:50:17.551Z,125.50
2023-02-11T14:55:29.298Z,117.50
2023-02-11T15:00:32.285Z,119.25
2023-02-11T15:05:35.166Z,114.00
2023-02-11T15:10:42.875Z,113.50
2023-02-11T15:15:46.766Z,107.75
2023-02-11T15:20:50.269Z,111.50
2023-02-11T15:25:56.154Z,103.00
2023-02-11T15:31:00.569Z,99.50
2023-02-11T15:36:03.986Z,96.75
2023-02-11T15:41:08.442Z,102.25
2023-02-11T15:46:11.878Z,97.75
2023-02-11T15:51:20.865Z,97.00
2023-02-11T15:56:26.125Z,88.00
2023-02-11T16:01:33.968Z,90.25
2023-02-11T16:06:39.649Z,90.25
2023-02-11T16:11:58.134Z,90.00
2023-02-11T16:17:03.448Z,88.50
2023-02-11T16:22:09.181Z,87.25
2023-02-11T16:27:21.474Z,80.50
2023-02-11T16:32:25.957Z,83.50
2023-02-11T16:37:28.749Z,77.25
2023-02-11T16:42:33.106Z,77.50
2023-02-11T16:47:35.893Z,81.50
2023-02-11T16:52:38.753Z,78.75
2023-02-11T16:57:42.892Z,77.00
2023-02-11T17:02:45.790Z,72.75
2023-02-11T17:07:48.536Z,71.75
2023-02-11T17:12:53.444Z,72.25
2023-02-11T17:17:56.329Z,71.50
2023-02-11T17:22:59.154Z,67.25
2023-02-11T17:28:03.409Z,69.75
2023-02-11T17:33:06.252Z,75.25
2023-02-11T17:38:09.057Z,65.25
2023-02-11T17:43:13.274Z,66.50
2023-02-11T17:48:16.080Z,64.00
2023-02-11T17:53:19.049Z,64.50
2023-02-11T17:58:23.221Z,65.50
2023-02-11T18:03:26.230Z,63.75
2023-02-11T18:08:28.991Z,65.50
2023-02-11T18:13:33.156Z,62.75
2023-02-11T18:18:35.968Z,61.00
2023-02-11T18:23:38.731Z,61.75
2023-02-11T18:28:45.698Z,62.00
2023-02-11T18:33:48.983Z,61.00
2023-02-11T18:38:53.625Z,59.75
2023-02-11T18:44:02.677Z,60.00
2023-02-11T18:49:05.489Z,58.50
2023-02-11T18:54:08.291Z,59.00
2023-02-11T18:59:12.501Z,58.00
2023-02-11T19:04:19.729Z,55.50
2023-02-11T19:09:22.783Z,56.00
2023-02-11T19:14:28.103Z,55.75
2023-02-11T19:19:32.070Z,54.75
2023-02-11T19:24:34.996Z,52.25
2023-02-11T19:29:39.349Z,52.25
2023-02-11T19:34:42.250Z,51.67
2023-02-11T19:39:45.135Z,53.00
2023-02-11T19:44:49.610Z,51.50
2023-02-11T19:49:52.558Z,50.67
2023-02-11T19:54:55.601Z,50.33
2023-02-11T20:00:01.422Z,47.00
2023-02-11T20:05:04.849Z,47.00
2023-02-11T20:10:09.176Z,47.00
2023-02-11T20:15:13.375Z,48.00
2023-02-11T20:20:18.649Z,43.67
2023-02-11T20:25:21.659Z,46.67
2023-02-11T20:30:26.139Z,44.33
2023-02-11T20:35:29.172Z,42.75
2023-02-11T20:40:32.409Z,46.00
2023-02-11T20:45:38.401Z,42.50
2023-02-11T20:50:41.495Z,41.00
2023-02-11T20:55:44.387Z,39.00
2023-02-11T21:00:48.833Z,40.50
2023-02-11T21:05:52.222Z,42.75
2023-02-11T21:10:55.236Z,40.50
2023-02-11T21:15:59.650Z,40.50
2023-02-11T21:21:03.462Z,37.00
2023-02-11T21:26:07.374Z,38.75
2023-02-11T21:31:18.871Z,38.75
2023-02-11T21:36:22.008Z,38.75
2023-02-11T21:41:25.186Z,35.75
2023-02-11T21:46:29.430Z,38.00
2023-02-11T21:51:32.324Z,36.75
2023-02-11T21:56:36.525Z,39.50
2023-02-11T22:01:40.869Z,36.25
2023-02-11T22:06:43.671Z,34.50
2023-02-11T22:11:46.459Z,32.00
2023-02-11T22:16:50.994Z,36.25
2023-02-11T22:21:54.030Z,34.00
2023-02-11T22:26:56.863Z,33.75
2023-02-11T22:32:01.124Z,31.50
2023-02-11T22:37:04.999Z,34.75
2023-02-11T22:42:08.113Z,35.25
2023-02-11T22:47:12.282Z,34.25
2023-02-11T22:52:15.100Z,29.25
2023-02-11T22:57:17.963Z,29.50
2023-02-11T23:02:22.174Z,30.75
2023-02-11T23:07:25.214Z,27.40
2023-02-11T23:12:28.042Z,31.00
2023-02-11T23:17:32.281Z,28.25
2023-02-11T23:22:35.042Z,29.00
2023-02-11T23:27:37.961Z,24.00
2023-02-11T23:32:42.192Z,31.80
2023-02-11T23:37:45.044Z,29.00
2023-02-11T23:42:49.016Z,25.25
2023-02-11T23:47:53.624Z,26.80
2023-02-11T23:52:56.450Z,27.20
2023-02-11T23:57:59.388Z,27.60
